Houlton International Airport Houlton US
ICAO: KHUL
IATA: HUL
Category: Medium
Scheduled Services: No

Elevation: 489 ft
TransAlt. 18000 ft.

Airport Communications:
ASOS:132.025
BOSTON CNTR:120.25
BANGOR RDO:122.2
CTAF/UNICOM:122.8

KHUL Zoom In..

If you have problems with the map follow the link
https://www.worldairports.se/pages/airport.php?
ICAO=KHUL

Runways:

(A) RW 01 length 2700 ft width 60 ft
---- / hdg 10

(B) RW 05 length 5015 ft width 100 ft
---- / hdg 49

(C) RW 19 length 2700 ft width 60 ft
---- / hdg 190

(D) RW 23 length 5015 ft width 100 ft
---- / hdg 229

Location; KHUL
Day. 18 / Time. 03.53 Zulu
* Altimeter: 30.44
* Temperature: -18° c. 0.4°f.
* Wind from: 340° Speed 04 kn.
Dewpoint: -23° c.
Visibility: 10 Statute Miles.
Clouds: Clear (automated report).

KHUL 180353Z AUTO 34004KT 10SM CLR M18/M23 A3044 RMK AO2 SLP322 T11831228


Wind From 340°
Speed 04 kn.

 
 
jpsmedia worldairports.se 2020   terms of use